sensor_id;sensor_type;location;lat;lon;timestamp;P1;durP1;ratioP1;P2;durP2;ratioP2
51718;SDS011;37795;53.236;5.704;2023-04-24T00:00:53;4.20;;;3.80;;
51718;SDS011;37795;53.236;5.704;2023-04-24T00:03:22;4.15;;;3.80;;
51718;SDS011;37795;53.236;5.704;2023-04-24T00:05:48;5.78;;;4.10;;
51718;SDS011;37795;53.236;5.704;2023-04-24T00:08:14;5.43;;;4.00;;
51718;SDS011;37795;53.236;5.704;2023-04-24T00:10:40;5.97;;;4.87;;
51718;SDS011;37795;53.236;5.704;2023-04-24T00:13:06;4.90;;;4.50;;
51718;SDS011;37795;53.236;5.704;2023-04-24T00:15:32;4.03;;;3.73;;
51718;SDS011;37795;53.236;5.704;2023-04-24T00:17:58;6.63;;;4.63;;
51718;SDS011;37795;53.236;5.704;2023-04-24T00:20:23;5.03;;;4.63;;
51718;SDS011;37795;53.236;5.704;2023-04-24T00:22:49;6.43;;;4.80;;
51718;SDS011;37795;53.236;5.704;2023-04-24T00:25:15;4.57;;;4.17;;
51718;SDS011;37795;53.236;5.704;2023-04-24T00:27:41;6.10;;;4.43;;
51718;SDS011;37795;53.236;5.704;2023-04-24T00:30:06;5.93;;;4.43;;
51718;SDS011;37795;53.236;5.704;2023-04-24T00:32:32;4.40;;;4.00;;
51718;SDS011;37795;53.236;5.704;2023-04-24T00:34:58;5.07;;;4.57;;
51718;SDS011;37795;53.236;5.704;2023-04-24T00:37:24;5.63;;;4.50;;
51718;SDS011;37795;53.236;5.704;2023-04-24T00:39:50;4.28;;;3.97;;
51718;SDS011;37795;53.236;5.704;2023-04-24T00:42:16;5.37;;;4.40;;
51718;SDS011;37795;53.236;5.704;2023-04-24T00:44:41;12.93;;;5.23;;
51718;SDS011;37795;53.236;5.704;2023-04-24T00:47:07;4.70;;;4.30;;
51718;SDS011;37795;53.236;5.704;2023-04-24T00:49:33;5.30;;;4.77;;
51718;SDS011;37795;53.236;5.704;2023-04-24T00:51:59;4.50;;;4.10;;
51718;SDS011;37795;53.236;5.704;2023-04-24T00:54:24;13.83;;;4.53;;
51718;SDS011;37795;53.236;5.704;2023-04-24T00:56:50;8.77;;;5.47;;
51718;SDS011;37795;53.236;5.704;2023-04-24T00:59:16;4.40;;;4.00;;
51718;SDS011;37795;53.236;5.704;2023-04-24T01:01:43;5.57;;;4.18;;
51718;SDS011;37795;53.236;5.704;2023-04-24T01:04:09;3.92;;;3.42;;
51718;SDS011;37795;53.236;5.704;2023-04-24T01:06:38;4.20;;;3.85;;
51718;SDS011;37795;53.236;5.704;2023-04-24T01:09:05;3.55;;;3.25;;
51718;SDS011;37795;53.236;5.704;2023-04-24T01:11:33;6.70;;;4.10;;
51718;SDS011;37795;53.236;5.704;2023-04-24T01:13:58;7.53;;;3.77;;
51718;SDS011;37795;53.236;5.704;2023-04-24T01:16:25;3.40;;;3.03;;
51718;SDS011;37795;53.236;5.704;2023-04-24T01:18:51;5.40;;;3.33;;
51718;SDS011;37795;53.236;5.704;2023-04-24T01:21:16;8.63;;;2.90;;
51718;SDS011;37795;53.236;5.704;2023-04-24T01:23:45;6.13;;;3.33;;
51718;SDS011;37795;53.236;5.704;2023-04-24T01:26:11;6.88;;;3.55;;
51718;SDS011;37795;53.236;5.704;2023-04-24T01:28:38;6.50;;;3.20;;
51718;SDS011;37795;53.236;5.704;2023-04-24T01:31:04;3.50;;;3.20;;
51718;SDS011;37795;53.236;5.704;2023-04-24T01:33:30;4.20;;;3.28;;
51718;SDS011;37795;53.236;5.704;2023-04-24T01:35:56;5.72;;;3.60;;
51718;SDS011;37795;53.236;5.704;2023-04-24T01:38:23;7.43;;;4.47;;
51718;SDS011;37795;53.236;5.704;2023-04-24T01:40:49;3.93;;;3.50;;
51718;SDS011;37795;53.236;5.704;2023-04-24T01:43:15;4.90;;;3.95;;
51718;SDS011;37795;53.236;5.704;2023-04-24T01:45:41;5.20;;;2.78;;
51718;SDS011;37795;53.236;5.704;2023-04-24T01:48:07;5.83;;;2.33;;
51718;SDS011;37795;53.236;5.704;2023-04-24T01:50:33;3.47;;;2.73;;
51718;SDS011;37795;53.236;5.704;2023-04-24T01:52:58;2.10;;;1.90;;
51718;SDS011;37795;53.236;5.704;2023-04-24T01:55:24;5.70;;;5.20;;
51718;SDS011;37795;53.236;5.704;2023-04-24T01:57:50;6.43;;;5.83;;
51718;SDS011;37795;53.236;5.704;2023-04-24T02:00:17;7.28;;;6.57;;
51718;SDS011;37795;53.236;5.704;2023-04-24T02:02:43;6.33;;;5.67;;
51718;SDS011;37795;53.236;5.704;2023-04-24T02:07:36;7.45;;;5.53;;
51718;SDS011;37795;53.236;5.704;2023-04-24T02:10:02;7.30;;;5.90;;
51718;SDS011;37795;53.236;5.704;2023-04-24T02:12:29;4.80;;;4.32;;
51718;SDS011;37795;53.236;5.704;2023-04-24T02:14:54;4.47;;;4.07;;
51718;SDS011;37795;53.236;5.704;2023-04-24T02:17:20;4.27;;;3.70;;
51718;SDS011;37795;53.236;5.704;2023-04-24T02:19:46;3.87;;;3.57;;
51718;SDS011;37795;53.236;5.704;2023-04-24T02:22:12;5.10;;;4.03;;
51718;SDS011;37795;53.236;5.704;2023-04-24T02:24:38;3.47;;;3.03;;
51718;SDS011;37795;53.236;5.704;2023-04-24T02:27:04;4.60;;;3.63;;
51718;SDS011;37795;53.236;5.704;2023-04-24T02:29:30;3.97;;;2.80;;
51718;SDS011;37795;53.236;5.704;2023-04-24T02:31:56;3.97;;;2.75;;
51718;SDS011;37795;53.236;5.704;2023-04-24T02:34:21;2.87;;;2.40;;
51718;SDS011;37795;53.236;5.704;2023-04-24T02:36:48;2.95;;;2.35;;
51718;SDS011;37795;53.236;5.704;2023-04-24T02:39:14;3.33;;;2.30;;
51718;SDS011;37795;53.236;5.704;2023-04-24T02:41:41;7.82;;;2.13;;
51718;SDS011;37795;53.236;5.704;2023-04-24T02:44:07;2.20;;;2.00;;
51718;SDS011;37795;53.236;5.704;2023-04-24T02:46:33;3.27;;;1.63;;
51718;SDS011;37795;53.236;5.704;2023-04-24T02:48:59;3.07;;;2.10;;
51718;SDS011;37795;53.236;5.704;2023-04-24T02:51:24;3.23;;;1.83;;
51718;SDS011;37795;53.236;5.704;2023-04-24T02:53:50;3.17;;;1.90;;
51718;SDS011;37795;53.236;5.704;2023-04-24T02:56:16;2.53;;;1.97;;
51718;SDS011;37795;53.236;5.704;2023-04-24T02:58:41;2.50;;;2.17;;
51718;SDS011;37795;53.236;5.704;2023-04-24T03:01:07;2.80;;;2.03;;
51718;SDS011;37795;53.236;5.704;2023-04-24T03:03:35;1.98;;;1.67;;
51718;SDS011;37795;53.236;5.704;2023-04-24T03:06:01;2.17;;;1.83;;
51718;SDS011;37795;53.236;5.704;2023-04-24T03:08:27;5.23;;;3.20;;
51718;SDS011;37795;53.236;5.704;2023-04-24T03:10:52;3.77;;;2.37;;
51718;SDS011;37795;53.236;5.704;2023-04-24T03:13:18;5.23;;;3.57;;
51718;SDS011;37795;53.236;5.704;2023-04-24T03:15:44;3.97;;;3.33;;
51718;SDS011;37795;53.236;5.704;2023-04-24T03:18:11;4.63;;;4.22;;
51718;SDS011;37795;53.236;5.704;2023-04-24T03:20:37;5.23;;;3.97;;
51718;SDS011;37795;53.236;5.704;2023-04-24T03:23:03;4.13;;;3.80;;
51718;SDS011;37795;53.236;5.704;2023-04-24T03:25:28;4.03;;;3.53;;
51718;SDS011;37795;53.236;5.704;2023-04-24T03:27:54;3.90;;;3.50;;
51718;SDS011;37795;53.236;5.704;2023-04-24T03:30:20;3.47;;;3.00;;
51718;SDS011;37795;53.236;5.704;2023-04-24T03:32:46;3.43;;;3.13;;
51718;SDS011;37795;53.236;5.704;2023-04-24T03:35:12;4.27;;;3.87;;
51718;SDS011;37795;53.236;5.704;2023-04-24T03:37:37;5.13;;;4.63;;
51718;SDS011;37795;53.236;5.704;2023-04-24T03:40:03;5.97;;;3.47;;
51718;SDS011;37795;53.236;5.704;2023-04-24T03:42:31;3.85;;;3.55;;
51718;SDS011;37795;53.236;5.704;2023-04-24T03:44:56;3.63;;;3.33;;
51718;SDS011;37795;53.236;5.704;2023-04-24T03:47:22;4.00;;;2.07;;
51718;SDS011;37795;53.236;5.704;2023-04-24T03:49:48;5.23;;;2.20;;
51718;SDS011;37795;53.236;5.704;2023-04-24T03:52:13;3.27;;;2.97;;
51718;SDS011;37795;53.236;5.704;2023-04-24T03:54:39;5.53;;;3.33;;
51718;SDS011;37795;53.236;5.704;2023-04-24T03:57:05;5.77;;;5.17;;
51718;SDS011;37795;53.236;5.704;2023-04-24T03:59:30;6.83;;;4.80;;
51718;SDS011;37795;53.236;5.704;2023-04-24T04:01:56;5.10;;;4.60;;
51718;SDS011;37795;53.236;5.704;2023-04-24T04:04:22;5.83;;;5.23;;
51718;SDS011;37795;53.236;5.704;2023-04-24T04:06:47;6.73;;;6.13;;
51718;SDS011;37795;53.236;5.704;2023-04-24T04:09:14;3.75;;;3.45;;
51718;SDS011;37795;53.236;5.704;2023-04-24T04:11:40;2.17;;;1.98;;
51718;SDS011;37795;53.236;5.704;2023-04-24T04:14:05;2.00;;;1.80;;
51718;SDS011;37795;53.236;5.704;2023-04-24T04:16:31;2.20;;;1.90;;
51718;SDS011;37795;53.236;5.704;2023-04-24T04:18:57;2.47;;;2.13;;
51718;SDS011;37795;53.236;5.704;2023-04-24T04:21:23;3.13;;;1.67;;
51718;SDS011;37795;53.236;5.704;2023-04-24T04:23:49;2.53;;;1.93;;
51718;SDS011;37795;53.236;5.704;2023-04-24T04:26:15;2.50;;;2.13;;
51718;SDS011;37795;53.236;5.704;2023-04-24T04:28:40;2.37;;;2.17;;
51718;SDS011;37795;53.236;5.704;2023-04-24T04:31:06;3.73;;;3.37;;
51718;SDS011;37795;53.236;5.704;2023-04-24T04:33:33;5.75;;;4.13;;
51718;SDS011;37795;53.236;5.704;2023-04-24T04:35:59;5.78;;;4.35;;
51718;SDS011;37795;53.236;5.704;2023-04-24T04:38:25;8.05;;;5.47;;
51718;SDS011;37795;53.236;5.704;2023-04-24T04:40:55;8.45;;;7.13;;
51718;SDS011;37795;53.236;5.704;2023-04-24T04:43:22;11.63;;;7.47;;
51718;SDS011;37795;53.236;5.704;2023-04-24T04:45:51;9.38;;;7.30;;
51718;SDS011;37795;53.236;5.704;2023-04-24T04:48:17;18.88;;;8.88;;
51718;SDS011;37795;53.236;5.704;2023-04-24T04:50:43;8.55;;;7.50;;
51718;SDS011;37795;53.236;5.704;2023-04-24T04:53:10;9.30;;;8.18;;
51718;SDS011;37795;53.236;5.704;2023-04-24T04:55:36;8.90;;;7.13;;
51718;SDS011;37795;53.236;5.704;2023-04-24T04:58:02;8.52;;;6.40;;
51718;SDS011;37795;53.236;5.704;2023-04-24T05:00:28;6.87;;;6.17;;
51718;SDS011;37795;53.236;5.704;2023-04-24T05:02:58;6.57;;;5.90;;
51718;SDS011;37795;53.236;5.704;2023-04-24T05:05:24;6.47;;;5.17;;
51718;SDS011;37795;53.236;5.704;2023-04-24T05:07:50;4.17;;;3.37;;
51718;SDS011;37795;53.236;5.704;2023-04-24T05:10:16;2.93;;;2.70;;
51718;SDS011;37795;53.236;5.704;2023-04-24T05:12:41;5.53;;;3.03;;
51718;SDS011;37795;53.236;5.704;2023-04-24T05:15:07;4.07;;;3.50;;
51718;SDS011;37795;53.236;5.704;2023-04-24T05:17:33;4.67;;;3.87;;
51718;SDS011;37795;53.236;5.704;2023-04-24T05:19:59;4.13;;;3.50;;
51718;SDS011;37795;53.236;5.704;2023-04-24T05:22:25;4.10;;;3.67;;
51718;SDS011;37795;53.236;5.704;2023-04-24T05:24:51;4.57;;;2.87;;
51718;SDS011;37795;53.236;5.704;2023-04-24T05:27:17;4.27;;;2.83;;
51718;SDS011;37795;53.236;5.704;2023-04-24T05:29:42;2.27;;;2.07;;
51718;SDS011;37795;53.236;5.704;2023-04-24T05:32:08;2.70;;;2.50;;
51718;SDS011;37795;53.236;5.704;2023-04-24T05:34:34;2.20;;;2.00;;
51718;SDS011;37795;53.236;5.704;2023-04-24T05:37:00;2.17;;;1.98;;
51718;SDS011;37795;53.236;5.704;2023-04-24T05:39:26;2.87;;;2.67;;
51718;SDS011;37795;53.236;5.704;2023-04-24T05:41:52;2.67;;;2.47;;
51718;SDS011;37795;53.236;5.704;2023-04-24T05:44:17;4.37;;;3.57;;
51718;SDS011;37795;53.236;5.704;2023-04-24T05:46:43;4.23;;;2.93;;
51718;SDS011;37795;53.236;5.704;2023-04-24T05:49:09;1.93;;;1.70;;
51718;SDS011;37795;53.236;5.704;2023-04-24T05:51:35;2.57;;;2.03;;
51718;SDS011;37795;53.236;5.704;2023-04-24T05:54:00;3.07;;;2.27;;
51718;SDS011;37795;53.236;5.704;2023-04-24T05:56:28;6.47;;;1.90;;
51718;SDS011;37795;53.236;5.704;2023-04-24T05:58:54;4.70;;;2.22;;
51718;SDS011;37795;53.236;5.704;2023-04-24T06:01:20;5.95;;;2.33;;
51718;SDS011;37795;53.236;5.704;2023-04-24T06:03:46;6.17;;;2.90;;
51718;SDS011;37795;53.236;5.704;2023-04-24T06:06:12;10.30;;;4.60;;
51718;SDS011;37795;53.236;5.704;2023-04-24T06:08:38;10.47;;;3.73;;
51718;SDS011;37795;53.236;5.704;2023-04-24T06:11:03;6.93;;;4.87;;
51718;SDS011;37795;53.236;5.704;2023-04-24T06:13:29;8.10;;;6.37;;
51718;SDS011;37795;53.236;5.704;2023-04-24T06:15:55;10.40;;;7.87;;
51718;SDS011;37795;53.236;5.704;2023-04-24T06:18:20;12.67;;;8.93;;
51718;SDS011;37795;53.236;5.704;2023-04-24T06:20:46;16.00;;;10.53;;
51718;SDS011;37795;53.236;5.704;2023-04-24T06:23:12;16.10;;;10.23;;
51718;SDS011;37795;53.236;5.704;2023-04-24T06:25:37;17.70;;;11.83;;
51718;SDS011;37795;53.236;5.704;2023-04-24T06:28:03;17.17;;;13.87;;
51718;SDS011;37795;53.236;5.704;2023-04-24T06:30:30;15.40;;;13.85;;
51718;SDS011;37795;53.236;5.704;2023-04-24T06:32:56;17.35;;;12.95;;
51718;SDS011;37795;53.236;5.704;2023-04-24T06:35:21;22.20;;;13.87;;
51718;SDS011;37795;53.236;5.704;2023-04-24T06:37:47;19.07;;;11.47;;
51718;SDS011;37795;53.236;5.704;2023-04-24T06:40:13;11.03;;;8.13;;
51718;SDS011;37795;53.236;5.704;2023-04-24T06:42:39;11.90;;;9.83;;
51718;SDS011;37795;53.236;5.704;2023-04-24T06:45:05;19.33;;;12.27;;
51718;SDS011;37795;53.236;5.704;2023-04-24T06:47:31;22.43;;;13.47;;
51718;SDS011;37795;53.236;5.704;2023-04-24T06:56:37;22.08;;;16.15;;
51718;SDS011;37795;53.236;5.704;2023-04-24T06:59:03;24.80;;;16.33;;
51718;SDS011;37795;53.236;5.704;2023-04-24T07:01:29;23.40;;;15.07;;
51718;SDS011;37795;53.236;5.704;2023-04-24T07:03:54;24.47;;;14.90;;
51718;SDS011;37795;53.236;5.704;2023-04-24T07:06:20;20.67;;;15.70;;
51718;SDS011;37795;53.236;5.704;2023-04-24T07:08:47;20.67;;;14.43;;
51718;SDS011;37795;53.236;5.704;2023-04-24T07:11:13;23.67;;;14.67;;
51718;SDS011;37795;53.236;5.704;2023-04-24T07:13:39;20.23;;;13.63;;
51718;SDS011;37795;53.236;5.704;2023-04-24T07:16:07;15.05;;;13.35;;
51718;SDS011;37795;53.236;5.704;2023-04-24T07:20:59;18.02;;;12.50;;
51718;SDS011;37795;53.236;5.704;2023-04-24T07:23:25;11.57;;;9.95;;
51718;SDS011;37795;53.236;5.704;2023-04-24T07:25:51;13.33;;;10.07;;
51718;SDS011;37795;53.236;5.704;2023-04-24T07:28:17;14.52;;;8.25;;
51718;SDS011;37795;53.236;5.704;2023-04-24T07:30:43;11.37;;;8.07;;
51718;SDS011;37795;53.236;5.704;2023-04-24T07:33:09;10.70;;;8.90;;
51718;SDS011;37795;53.236;5.704;2023-04-24T07:35:38;9.52;;;8.32;;
51718;SDS011;37795;53.236;5.704;2023-04-24T07:38:03;8.97;;;8.07;;
51718;SDS011;37795;53.236;5.704;2023-04-24T07:40:29;11.00;;;7.30;;
51718;SDS011;37795;53.236;5.704;2023-04-24T07:42:55;16.03;;;7.97;;
51718;SDS011;37795;53.236;5.704;2023-04-24T07:45:21;14.00;;;7.13;;
51718;SDS011;37795;53.236;5.704;2023-04-24T07:47:48;14.10;;;6.47;;
51718;SDS011;37795;53.236;5.704;2023-04-24T07:50:15;13.57;;;6.57;;
51718;SDS011;37795;53.236;5.704;2023-04-24T07:52:41;12.17;;;7.27;;
51718;SDS011;37795;53.236;5.704;2023-04-24T07:55:07;9.40;;;7.70;;
51718;SDS011;37795;53.236;5.704;2023-04-24T07:57:33;9.38;;;8.05;;
51718;SDS011;37795;53.236;5.704;2023-04-24T07:59:59;8.50;;;7.35;;
51718;SDS011;37795;53.236;5.704;2023-04-24T08:02:25;16.43;;;7.60;;
51718;SDS011;37795;53.236;5.704;2023-04-24T08:04:54;12.45;;;7.22;;
51718;SDS011;37795;53.236;5.704;2023-04-24T08:07:20;7.93;;;7.10;;
51718;SDS011;37795;53.236;5.704;2023-04-24T08:09:47;11.57;;;7.82;;
51718;SDS011;37795;53.236;5.704;2023-04-24T08:12:12;10.40;;;6.97;;
51718;SDS011;37795;53.236;5.704;2023-04-24T08:14:38;7.63;;;6.53;;
51718;SDS011;37795;53.236;5.704;2023-04-24T08:17:04;12.40;;;7.10;;
51718;SDS011;37795;53.236;5.704;2023-04-24T08:19:29;9.93;;;7.63;;
51718;SDS011;37795;53.236;5.704;2023-04-24T08:21:55;11.03;;;7.00;;
51718;SDS011;37795;53.236;5.704;2023-04-24T08:24:22;8.90;;;6.57;;
51718;SDS011;37795;53.236;5.704;2023-04-24T08:29:17;11.45;;;5.78;;
51718;SDS011;37795;53.236;5.704;2023-04-24T08:31:43;14.77;;;6.43;;
51718;SDS011;37795;53.236;5.704;2023-04-24T08:34:09;11.63;;;6.07;;
51718;SDS011;37795;53.236;5.704;2023-04-24T08:36:35;12.02;;;5.72;;
51718;SDS011;37795;53.236;5.704;2023-04-24T08:39:01;6.72;;;5.38;;
51718;SDS011;37795;53.236;5.704;2023-04-24T08:41:27;7.33;;;5.30;;
51718;SDS011;37795;53.236;5.704;2023-04-24T08:43:52;8.87;;;5.47;;
51718;SDS011;37795;53.236;5.704;2023-04-24T08:46:20;11.93;;;5.20;;
51718;SDS011;37795;53.236;5.704;2023-04-24T08:48:47;6.60;;;4.88;;
51718;SDS011;37795;53.236;5.704;2023-04-24T08:51:14;7.72;;;5.13;;
51718;SDS011;37795;53.236;5.704;2023-04-24T08:53:40;10.15;;;4.35;;
51718;SDS011;37795;53.236;5.704;2023-04-24T08:56:06;9.17;;;4.43;;
51718;SDS011;37795;53.236;5.704;2023-04-24T08:58:32;8.03;;;5.23;;
51718;SDS011;37795;53.236;5.704;2023-04-24T09:00:58;11.77;;;4.97;;
51718;SDS011;37795;53.236;5.704;2023-04-24T09:05:52;7.68;;;4.72;;
51718;SDS011;37795;53.236;5.704;2023-04-24T09:08:23;13.90;;;5.57;;
51718;SDS011;37795;53.236;5.704;2023-04-24T09:10:50;5.93;;;4.30;;
51718;SDS011;37795;53.236;5.704;2023-04-24T09:13:16;6.93;;;5.00;;
51718;SDS011;37795;53.236;5.704;2023-04-24T09:15:43;13.10;;;4.70;;
51718;SDS011;37795;53.236;5.704;2023-04-24T09:18:08;12.00;;;5.50;;
51718;SDS011;37795;53.236;5.704;2023-04-24T09:20:34;12.80;;;4.40;;
51718;SDS011;37795;53.236;5.704;2023-04-24T09:23:20;7.22;;;3.45;;
51718;SDS011;37795;53.236;5.704;2023-04-24T09:25:46;10.47;;;4.87;;
51718;SDS011;37795;53.236;5.704;2023-04-24T09:28:20;13.95;;;4.82;;
51718;SDS011;37795;53.236;5.704;2023-04-24T09:31:15;10.20;;;4.30;;
51718;SDS011;37795;53.236;5.704;2023-04-24T09:36:28;11.73;;;4.25;;
51718;SDS011;37795;53.236;5.704;2023-04-24T09:38:58;9.68;;;4.80;;
51718;SDS011;37795;53.236;5.704;2023-04-24T09:43:50;11.40;;;4.57;;
51718;SDS011;37795;53.236;5.704;2023-04-24T09:46:19;11.32;;;3.85;;
51718;SDS011;37795;53.236;5.704;2023-04-24T09:48:46;9.93;;;3.50;;
51718;SDS011;37795;53.236;5.704;2023-04-24T09:51:12;12.17;;;3.73;;
51718;SDS011;37795;53.236;5.704;2023-04-24T09:53:44;9.48;;;3.30;;
51718;SDS011;37795;53.236;5.704;2023-04-24T09:56:11;8.52;;;3.63;;
51718;SDS011;37795;53.236;5.704;2023-04-24T09:58:40;11.93;;;3.53;;
51718;SDS011;37795;53.236;5.704;2023-04-24T10:01:06;15.40;;;3.30;;
51718;SDS011;37795;53.236;5.704;2023-04-24T10:03:32;5.13;;;2.90;;
51718;SDS011;37795;53.236;5.704;2023-04-24T10:08:25;5.03;;;2.70;;
51718;SDS011;37795;53.236;5.704;2023-04-24T10:10:51;7.00;;;3.30;;
51718;SDS011;37795;53.236;5.704;2023-04-24T10:13:17;10.20;;;3.73;;
51718;SDS011;37795;53.236;5.704;2023-04-24T10:15:43;13.20;;;3.47;;
51718;SDS011;37795;53.236;5.704;2023-04-24T10:18:11;8.07;;;3.60;;
51718;SDS011;37795;53.236;5.704;2023-04-24T10:20:38;5.20;;;4.07;;
51718;SDS011;37795;53.236;5.704;2023-04-24T10:23:05;5.93;;;3.20;;
51718;SDS011;37795;53.236;5.704;2023-04-24T10:25:32;5.32;;;3.42;;
51718;SDS011;37795;53.236;5.704;2023-04-24T10:28:00;3.05;;;2.22;;
51718;SDS011;37795;53.236;5.704;2023-04-24T10:32:53;8.27;;;3.25;;
51718;SDS011;37795;53.236;5.704;2023-04-24T10:35:19;11.80;;;3.27;;
51718;SDS011;37795;53.236;5.704;2023-04-24T10:37:51;16.10;;;3.60;;
51718;SDS011;37795;53.236;5.704;2023-04-24T10:40:25;5.88;;;3.30;;
51718;SDS011;37795;53.236;5.704;2023-04-24T10:42:53;4.60;;;2.38;;
51718;SDS011;37795;53.236;5.704;2023-04-24T10:45:19;9.50;;;3.20;;
51718;SDS011;37795;53.236;5.704;2023-04-24T10:47:52;7.10;;;3.15;;
51718;SDS011;37795;53.236;5.704;2023-04-24T10:56:39;9.65;;;3.47;;
51718;SDS011;37795;53.236;5.704;2023-04-24T10:59:07;5.33;;;2.57;;
51718;SDS011;37795;53.236;5.704;2023-04-24T11:01:34;4.35;;;2.05;;
51718;SDS011;37795;53.236;5.704;2023-04-24T11:04:03;5.20;;;2.15;;
51718;SDS011;37795;53.236;5.704;2023-04-24T11:06:33;3.27;;;1.70;;
51718;SDS011;37795;53.236;5.704;2023-04-24T11:09:07;5.93;;;2.22;;
51718;SDS011;37795;53.236;5.704;2023-04-24T11:11:35;6.63;;;2.05;;
51718;SDS011;37795;53.236;5.704;2023-04-24T11:14:08;6.75;;;2.65;;
51718;SDS011;37795;53.236;5.704;2023-04-24T11:16:35;4.30;;;2.30;;
51718;SDS011;37795;53.236;5.704;2023-04-24T11:19:08;2.67;;;1.67;;
51718;SDS011;37795;53.236;5.704;2023-04-24T11:21:42;4.90;;;2.30;;
51718;SDS011;37795;53.236;5.704;2023-04-24T11:27:39;5.45;;;2.15;;
51718;SDS011;37795;53.236;5.704;2023-04-24T11:37:38;14.70;;;2.67;;
51718;SDS011;37795;53.236;5.704;2023-04-24T11:40:06;9.63;;;2.30;;
51718;SDS011;37795;53.236;5.704;2023-04-24T11:42:37;6.78;;;2.70;;
51718;SDS011;37795;53.236;5.704;2023-04-24T11:45:14;3.95;;;1.77;;
51718;SDS011;37795;53.236;5.704;2023-04-24T11:47:41;5.60;;;2.33;;
51718;SDS011;37795;53.236;5.704;2023-04-24T11:50:10;6.40;;;2.25;;
51718;SDS011;37795;53.236;5.704;2023-04-24T11:52:39;4.43;;;1.80;;
51718;SDS011;37795;53.236;5.704;2023-04-24T11:55:22;17.00;;;2.83;;
51718;SDS011;37795;53.236;5.704;2023-04-24T11:57:53;8.73;;;2.40;;
51718;SDS011;37795;53.236;5.704;2023-04-24T12:00:22;4.85;;;2.22;;
51718;SDS011;37795;53.236;5.704;2023-04-24T12:03:03;7.88;;;2.15;;
51718;SDS011;37795;53.236;5.704;2023-04-24T12:05:36;11.35;;;1.92;;
51718;SDS011;37795;53.236;5.704;2023-04-24T12:08:02;4.03;;;1.88;;
51718;SDS011;37795;53.236;5.704;2023-04-24T12:10:29;8.37;;;2.30;;
51718;SDS011;37795;53.236;5.704;2023-04-24T12:12:56;2.28;;;1.50;;
51718;SDS011;37795;53.236;5.704;2023-04-24T12:15:23;10.48;;;2.60;;
51718;SDS011;37795;53.236;5.704;2023-04-24T12:17:52;7.18;;;1.95;;
51718;SDS011;37795;53.236;5.704;2023-04-24T12:20:24;5.78;;;1.30;;
51718;SDS011;37795;53.236;5.704;2023-04-24T12:22:52;7.40;;;1.63;;
51718;SDS011;37795;53.236;5.704;2023-04-24T12:25:20;5.40;;;2.25;;
51718;SDS011;37795;53.236;5.704;2023-04-24T12:27:54;5.88;;;1.55;;
51718;SDS011;37795;53.236;5.704;2023-04-24T12:30:39;4.63;;;1.67;;
51718;SDS011;37795;53.236;5.704;2023-04-24T12:33:06;2.42;;;1.52;;
51718;SDS011;37795;53.236;5.704;2023-04-24T12:35:32;4.93;;;1.80;;
51718;SDS011;37795;53.236;5.704;2023-04-24T12:38:10;4.78;;;1.52;;
51718;SDS011;37795;53.236;5.704;2023-04-24T12:40:38;3.00;;;1.80;;
51718;SDS011;37795;53.236;5.704;2023-04-24T12:43:16;5.75;;;1.80;;
51718;SDS011;37795;53.236;5.704;2023-04-24T12:45:48;7.72;;;2.30;;
51718;SDS011;37795;53.236;5.704;2023-04-24T12:48:14;4.03;;;2.38;;
51718;SDS011;37795;53.236;5.704;2023-04-24T12:50:40;6.13;;;2.17;;
51718;SDS011;37795;53.236;5.704;2023-04-24T12:53:08;6.90;;;2.87;;
51718;SDS011;37795;53.236;5.704;2023-04-24T12:55:34;6.63;;;2.92;;
51718;SDS011;37795;53.236;5.704;2023-04-24T12:58:00;8.10;;;3.45;;
51718;SDS011;37795;53.236;5.704;2023-04-24T13:00:27;17.33;;;4.03;;
51718;SDS011;37795;53.236;5.704;2023-04-24T13:02:52;10.00;;;3.50;;
51718;SDS011;37795;53.236;5.704;2023-04-24T13:05:21;9.43;;;3.00;;
51718;SDS011;37795;53.236;5.704;2023-04-24T13:07:47;13.07;;;2.88;;
51718;SDS011;37795;53.236;5.704;2023-04-24T13:10:12;14.20;;;3.17;;
51718;SDS011;37795;53.236;5.704;2023-04-24T13:12:38;5.90;;;2.60;;
51718;SDS011;37795;53.236;5.704;2023-04-24T13:15:05;8.20;;;2.90;;
51718;SDS011;37795;53.236;5.704;2023-04-24T13:17:32;14.13;;;4.55;;
51718;SDS011;37795;53.236;5.704;2023-04-24T13:19:58;9.20;;;3.10;;
51718;SDS011;37795;53.236;5.704;2023-04-24T13:22:24;4.93;;;2.90;;
51718;SDS011;37795;53.236;5.704;2023-04-24T13:24:50;7.07;;;2.67;;
51718;SDS011;37795;53.236;5.704;2023-04-24T13:27:16;3.80;;;2.27;;
51718;SDS011;37795;53.236;5.704;2023-04-24T13:29:42;14.57;;;3.15;;
51718;SDS011;37795;53.236;5.704;2023-04-24T13:32:08;9.30;;;2.87;;
51718;SDS011;37795;53.236;5.704;2023-04-24T13:34:34;9.52;;;3.60;;
51718;SDS011;37795;53.236;5.704;2023-04-24T13:37:00;10.93;;;3.28;;
51718;SDS011;37795;53.236;5.704;2023-04-24T13:39:28;10.93;;;2.55;;
51718;SDS011;37795;53.236;5.704;2023-04-24T13:41:54;7.28;;;2.30;;
51718;SDS011;37795;53.236;5.704;2023-04-24T13:44:21;12.75;;;3.40;;
51718;SDS011;37795;53.236;5.704;2023-04-24T13:46:49;8.38;;;3.58;;
51718;SDS011;37795;53.236;5.704;2023-04-24T13:49:17;6.18;;;2.78;;
51718;SDS011;37795;53.236;5.704;2023-04-24T13:51:43;19.80;;;4.00;;
51718;SDS011;37795;53.236;5.704;2023-04-24T13:54:10;6.28;;;3.10;;
51718;SDS011;37795;53.236;5.704;2023-04-24T13:56:36;12.17;;;4.07;;
51718;SDS011;37795;53.236;5.704;2023-04-24T13:59:02;10.73;;;4.67;;
51718;SDS011;37795;53.236;5.704;2023-04-24T14:01:28;7.37;;;3.57;;
51718;SDS011;37795;53.236;5.704;2023-04-24T14:03:54;7.73;;;4.00;;
51718;SDS011;37795;53.236;5.704;2023-04-24T14:08:47;10.40;;;4.78;;
51718;SDS011;37795;53.236;5.704;2023-04-24T14:11:13;15.88;;;4.88;;
51718;SDS011;37795;53.236;5.704;2023-04-24T14:13:39;13.63;;;4.50;;
51718;SDS011;37795;53.236;5.704;2023-04-24T14:16:06;12.10;;;5.18;;
51718;SDS011;37795;53.236;5.704;2023-04-24T14:18:32;8.90;;;5.10;;
51718;SDS011;37795;53.236;5.704;2023-04-24T14:20:58;10.57;;;3.50;;
51718;SDS011;37795;53.236;5.704;2023-04-24T14:23:26;9.73;;;4.75;;
51718;SDS011;37795;53.236;5.704;2023-04-24T14:25:52;12.15;;;4.90;;
51718;SDS011;37795;53.236;5.704;2023-04-24T14:28:18;10.32;;;4.35;;
51718;SDS011;37795;53.236;5.704;2023-04-24T14:30:45;11.48;;;3.70;;
51718;SDS011;37795;53.236;5.704;2023-04-24T14:33:11;7.80;;;3.40;;
51718;SDS011;37795;53.236;5.704;2023-04-24T14:35:38;6.60;;;3.55;;
51718;SDS011;37795;53.236;5.704;2023-04-24T14:38:04;14.05;;;3.95;;
51718;SDS011;37795;53.236;5.704;2023-04-24T14:40:30;14.70;;;3.97;;
51718;SDS011;37795;53.236;5.704;2023-04-24T14:42:57;9.63;;;4.03;;
51718;SDS011;37795;53.236;5.704;2023-04-24T14:45:23;12.90;;;5.40;;
51718;SDS011;37795;53.236;5.704;2023-04-24T14:47:50;16.15;;;5.18;;
51718;SDS011;37795;53.236;5.704;2023-04-24T14:50:16;12.30;;;5.97;;
51718;SDS011;37795;53.236;5.704;2023-04-24T14:52:41;11.90;;;4.37;;
51718;SDS011;37795;53.236;5.704;2023-04-24T14:55:07;13.27;;;5.73;;
51718;SDS011;37795;53.236;5.704;2023-04-24T14:57:34;6.30;;;3.58;;
51718;SDS011;37795;53.236;5.704;2023-04-24T15:00:01;11.57;;;5.15;;
51718;SDS011;37795;53.236;5.704;2023-04-24T15:02:28;13.43;;;5.15;;
51718;SDS011;37795;53.236;5.704;2023-04-24T15:04:54;10.83;;;4.97;;
51718;SDS011;37795;53.236;5.704;2023-04-24T15:07:19;8.87;;;4.33;;
51718;SDS011;37795;53.236;5.704;2023-04-24T15:09:45;7.97;;;4.93;;
51718;SDS011;37795;53.236;5.704;2023-04-24T15:12:12;10.55;;;4.97;;
51718;SDS011;37795;53.236;5.704;2023-04-24T15:14:38;21.47;;;5.57;;
51718;SDS011;37795;53.236;5.704;2023-04-24T15:17:04;13.53;;;4.37;;
51718;SDS011;37795;53.236;5.704;2023-04-24T15:19:30;13.73;;;5.00;;
51718;SDS011;37795;53.236;5.704;2023-04-24T15:21:56;12.45;;;4.70;;
51718;SDS011;37795;53.236;5.704;2023-04-24T15:24:21;12.40;;;5.47;;
51718;SDS011;37795;53.236;5.704;2023-04-24T15:26:47;12.57;;;5.13;;